Terminal Aerodrome Forecast
Issued by NWS State College, PA

Current Version | Previous Version | Text Only | Print | Product List | Glossary On
Versions: 1 2 3 4 5 6 7 8 9 10 11 12 13 14 15 16 17 18 19 20 21 22 23 24 25 26 27 28 29 30 31 32 33 34 35 36 37 38 39 40 41 42 43 44 45 46 47 48 49 50
453
FTUS41 KCTP 131739
TAFMDT
TAF
KMDT 131739Z 1318/1418 23006KT P6SM BKN025 OVC040
     FM131930 17005KT P6SM BKN050
     FM132100 16005KT P6SM -SHRA VCTS OVC035CB
     FM140600 13004KT 5SM BR OVC010
     FM141300 27006KT P6SM BKN050=

USA.gov is the U.S. government's official web portal to all federal, state and local government web resources and services.